Doc Maynard — WDI3125 — position and weather

sailwx.info

Track history (hours):
 
Tides and Currents Weather Stations Pressure Air Temp Water Temp Dewpoint Dewpoint Depression Visibility Wind Speed Wind Dir Waves Ship Positions

Doc Maynard

Owner: King County Marine Division, Seattle, WA. More information available from US FCC via Universal Licensing System and Coast Guard Vessel Documentation Center.

Last reported at 2018-Jun-20 01:58 UTC. Time now 2018-Jun-20 01:59 UTC.
Position N 47°35' W 122°23'.

Length 31 m; draft 3.1 m.

Type: Passenger vessel. MMSI: 338224000.

Date/timePositionNaut miles runAvg speedWind from/ knotsBaromVisibWave heightAir tempDewpointWater temp
2018-Jun-20 01:58N 47°35' W 122°23'0 0.7
2018-Jun-20 01:30N 47°36' W 122°22'1 2.5
2018-Jun-20 00:55N 47°36' W 122°20'1 1.9
2018-Jun-20 00:30N 47°36' W 122°21'1 2.2
2018-Jun-20 00:00N 47°35' W 122°23'0 0.4
2018-Jun-19 23:30N 47°36' W 122°23'1 2.3
2018-Jun-19 22:52N 47°36' W 122°21'1 1.8
2018-Jun-19 22:30N 47°36' W 122°22'1 2.0
2018-Jun-19 21:58N 47°35' W 122°23'2 2.5
2018-Jun-19 21:15N 47°36' W 122°20'2 5.7
2018-Jun-19 20:56N 47°35' W 122°23'2 2.8
2018-Jun-19 20:17N 47°36' W 122°20'2 6.4
2018-Jun-19 20:00N 47°35' W 122°23'2 2.6
2018-Jun-19 19:18N 47°36' W 122°20'2 6.0
2018-Jun-19 18:59N 47°35' W 122°23'2 2.3
2018-Jun-19 18:14N 47°36' W 122°21'2 6.6
2018-Jun-19 17:58N 47°35' W 122°23'2 3.5
2018-Jun-19 17:27N 47°36' W 122°20'1 2.2
2018-Jun-19 16:57N 47°35' W 122°21'1 1.3
2018-Jun-19 16:30N 47°36' W 122°21'1 2.1
2018-Jun-19 16:00N 47°36' W 122°22'0 0.7
2018-Jun-19 15:30N 47°35' W 122°23'0 0.0
2018-Jun-19 15:00N 47°35' W 122°23'0 0.1
2018-Jun-19 14:30N 47°35' W 122°23'2 2.9
2018-Jun-19 13:58N 47°36' W 122°21'0 0.6
2018-Jun-19 13:28N 47°36' W 122°20'0 0.0
2018-Jun-19 12:55N 47°36' W 122°20'0 0.3
2018-Jun-19 12:25N 47°36' W 122°20'0 0.0
2018-Jun-19 11:35N 47°36' W 122°20'0 0.0
2018-Jun-19 11:27N 47°36' W 122°20'0 0.0
2018-Jun-19 11:00N 47°36' W 122°20'0 0.0
2018-Jun-19 10:30N 47°36' W 122°20'0 0.0
2018-Jun-19 10:00N 47°36' W 122°20'0 0.0
2018-Jun-19 09:30N 47°36' W 122°20'0 0.0
2018-Jun-19 09:00N 47°36' W 122°20'0 0.0
2018-Jun-19 08:30N 47°36' W 122°20'0 0.0
2018-Jun-19 08:00N 47°36' W 122°20'0 0.0
2018-Jun-19 07:30N 47°36' W 122°20'0 0.0
2018-Jun-19 07:00N 47°36' W 122°20'0 0.0
2018-Jun-19 06:30N 47°36' W 122°20'0 0.0
2018-Jun-19 06:00N 47°36' W 122°20'0 0.0
2018-Jun-19 05:30N 47°36' W 122°20'0 0.0
2018-Jun-19 04:59N 47°36' W 122°20'0 0.0
2018-Jun-19 04:28N 47°36' W 122°20'0 0.0
2018-Jun-19 03:49N 47°36' W 122°20'0 0.0
2018-Jun-19 03:29N 47°36' W 122°20'0 0.0
2018-Jun-19 02:59N 47°36' W 122°20'0 0.0
2018-Jun-19 02:30N 47°36' W 122°20'0 0.0
2018-Jun-19 02:00N 47°36' W 122°20'0 0.0
2018-Jun-19 01:30N 47°36' W 122°20'0 0.0
2018-Jun-19 01:00N 47°36' W 122°20'0 0.0
2018-Jun-19 00:30N 47°36' W 122°20'0 0.0
2018-Jun-19 00:00N 47°36' W 122°20'0 0.0
2018-Jun-18 23:30N 47°36' W 122°20'0 0.0
2018-Jun-18 23:00N 47°36' W 122°20'0 0.0
2018-Jun-18 22:30N 47°36' W 122°20'0 0.0
2018-Jun-18 22:00N 47°36' W 122°20'0 0.0
2018-Jun-18 21:30N 47°36' W 122°20'0 0.0
2018-Jun-18 21:00N 47°36' W 122°20'0 0.0
2018-Jun-18 20:24N 47°36' W 122°20'0 0.0
2018-Jun-18 19:46N 47°36' W 122°20'0 0.0
2018-Jun-18 19:30N 47°36' W 122°20'0 0.0
2018-Jun-18 18:58N 47°36' W 122°20'0 0.0
2018-Jun-18 18:06N 47°36' W 122°20'0 0.0
2018-Jun-18 18:00N 47°36' W 122°20'0 0.0
2018-Jun-18 17:29N 47°36' W 122°20'0 0.0
2018-Jun-18 16:57N 47°36' W 122°20'0 0.0
2018-Jun-18 16:30N 47°36' W 122°20'0 0.0
2018-Jun-18 15:59N 47°36' W 122°20'0 0.0
2018-Jun-18 15:30N 47°36' W 122°20'0 0.0
2018-Jun-18 15:00N 47°36' W 122°20'0 0.0
2018-Jun-18 14:30N 47°36' W 122°20'0 0.0
2018-Jun-18 14:00N 47°36' W 122°20'0 0.0
2018-Jun-18 13:26N 47°36' W 122°20'0 0.0
2018-Jun-18 13:00N 47°36' W 122°20'0 0.0
2018-Jun-18 12:30N 47°36' W 122°20'0 0.0
2018-Jun-18 12:00N 47°36' W 122°20'0 0.0
2018-Jun-18 11:30N 47°36' W 122°20'0 0.0
2018-Jun-18 11:00N 47°36' W 122°20'0 0.0
2018-Jun-18 10:30N 47°36' W 122°20'0 0.0
2018-Jun-18 10:00N 47°36' W 122°20'0 0.0
2018-Jun-18 09:30N 47°36' W 122°20'0 0.0
2018-Jun-18 09:00N 47°36' W 122°20'0 0.0
2018-Jun-18 08:30N 47°36' W 122°20'0 0.0
2018-Jun-18 08:00N 47°36' W 122°20'0 0.0
2018-Jun-18 07:30N 47°36' W 122°20'0 0.0
2018-Jun-18 07:00N 47°36' W 122°20'0 0.0
2018-Jun-18 06:30N 47°36' W 122°20'0 0.0
2018-Jun-18 06:00N 47°36' W 122°20'0 0.0
2018-Jun-18 05:30N 47°36' W 122°20'0 0.0
2018-Jun-18 05:00N 47°36' W 122°20'0 0.0
2018-Jun-18 04:30N 47°36' W 122°20'0 0.0
2018-Jun-18 04:00N 47°36' W 122°20'0 0.0
2018-Jun-18 03:30N 47°36' W 122°20'2 3.6
2018-Jun-18 02:59N 47°35' W 122°23'2 2.5
2018-Jun-18 02:15N 47°36' W 122°20'2 6.5
2018-Jun-18 01:58N 47°35' W 122°23'2 2.6
2018-Jun-18 01:16N 47°36' W 122°20'2 6.1
2018-Jun-18 00:58N 47°35' W 122°23'2 2.5
2018-Jun-18 00:15N 47°36' W 122°20'2 6.1
2018-Jun-17 23:58N 47°35' W 122°23'2 2.7
2018-Jun-17 23:17N 47°36' W 122°20'2 6.2
2018-Jun-17 22:59N 47°35' W 122°23'2 2.7
2018-Jun-17 22:19N 47°36' W 122°20'2 5.8
2018-Jun-17 22:00N 47°35' W 122°23'2 2.2
2018-Jun-17 21:11N 47°36' W 122°20'2 9.4
2018-Jun-17 20:59N 47°35' W 122°23'2 3.4
2018-Jun-17 20:27N 47°36' W 122°20'2 3.7
2018-Jun-17 19:58N 47°35' W 122°23'2 2.5
2018-Jun-17 19:15N 47°36' W 122°21'2 6.2
2018-Jun-17 18:58N 47°35' W 122°23'2 2.2
2018-Jun-17 18:16N 47°36' W 122°21'2 5.5
2018-Jun-17 17:59N 47°35' W 122°23'1 2.1
2018-Jun-17 17:17N 47°36' W 122°21'1 4.5
2018-Jun-17 16:58N 47°35' W 122°23'2 2.0
2018-Jun-17 16:09N 47°36' W 122°21'2 7.4
2018-Jun-17 15:56N 47°35' W 122°23'2 3.7
2018-Jun-17 15:26N 47°36' W 122°20'0 0.3
2018-Jun-17 14:54N 47°36' W 122°20'0 0.0
2018-Jun-17 14:30N 47°36' W 122°20'0 0.0
2018-Jun-17 12:36N 47°36' W 122°20'0 0.0
2018-Jun-17 12:30N 47°36' W 122°20'0 0.0
2018-Jun-17 12:00N 47°36' W 122°20'0 0.0
2018-Jun-17 11:30N 47°36' W 122°20'0 0.0
2018-Jun-17 11:00N 47°36' W 122°20'0 0.0
2018-Jun-17 10:27N 47°36' W 122°20'0 0.0
2018-Jun-17 09:51N 47°36' W 122°20'0 0.0
2018-Jun-17 09:24N 47°36' W 122°20'0 0.0
2018-Jun-17 09:00N 47°36' W 122°20'0 0.0
2018-Jun-17 08:30N 47°36' W 122°20'0 0.0
2018-Jun-17 08:00N 47°36' W 122°20'0 0.0
2018-Jun-17 07:27N 47°36' W 122°20'0 0.0
2018-Jun-17 07:00N 47°36' W 122°20'0 0.0
2018-Jun-17 06:30N 47°36' W 122°20'2 3.4
2018-Jun-17 05:58N 47°35' W 122°23'2 3.1
2018-Jun-17 05:22N 47°36' W 122°20'2 4.8
2018-Jun-17 05:00N 47°35' W 122°23'2 3.5
2018-Jun-17 04:29N 47°36' W 122°20'2 3.9
2018-Jun-17 04:01N 47°35' W 122°23'2 3.4
2018-Jun-17 03:28N 47°36' W 122°20'2 3.9
2018-Jun-17 03:00N 47°35' W 122°23'2 2.4
2018-Jun-17 02:15N 47°36' W 122°20'2 7.4
2018-Jun-17 02:00N 47°35' W 122°23'2 1.9
2018-Jun-17 01:11N 47°36' W 122°21'2 7.7
2018-Jun-17 00:59N 47°35' W 122°23'2 3.8
2018-Jun-17 00:30N 47°36' W 122°20'2 3.6
2018-Jun-17 00:00N 47°35' W 122°23'2 3.7
2018-Jun-16 23:30N 47°36' W 122°20'2 3.7
2018-Jun-16 23:00N 47°35' W 122°23'2 3.7
2018-Jun-16 22:30N 47°36' W 122°20'2 3.6
2018-Jun-16 22:00N 47°35' W 122°23'2 3.2
2018-Jun-16 21:26N 47°36' W 122°20'2 4.0
2018-Jun-16 20:59N 47°35' W 122°23'2 3.3
2018-Jun-16 20:26N 47°36' W 122°20'2 4.3
2018-Jun-16 20:00N 47°35' W 122°23'2 3.5
2018-Jun-16 19:29N 47°36' W 122°20'2 3.6
2018-Jun-16 18:59N 47°35' W 122°23'2 2.4
2018-Jun-16 18:15N 47°36' W 122°21'2 7.0
2018-Jun-16 18:00N 47°35' W 122°23'2 3.7
2018-Jun-16 17:30N 47°36' W 122°20'2 3.7
2018-Jun-16 17:00N 47°35' W 122°23'2 2.9
2018-Jun-16 16:23N 47°36' W 122°20'2 4.6
2018-Jun-16 16:00N 47°35' W 122°23'2 3.5
2018-Jun-16 15:29N 47°36' W 122°20'0 0.3
2018-Jun-16 14:52N 47°36' W 122°20'0 0.0
2018-Jun-16 14:25N 47°36' W 122°20'0 0.0
2018-Jun-16 13:31N 47°36' W 122°20'0 0.0
2018-Jun-16 13:28N 47°36' W 122°20'0 0.0
2018-Jun-16 12:58N 47°36' W 122°20'0 0.0
2018-Jun-16 12:30N 47°36' W 122°20'0 0.0
2018-Jun-16 11:58N 47°36' W 122°20'0 0.0
2018-Jun-16 11:30N 47°36' W 122°20'0 0.0
2018-Jun-16 10:58N 47°36' W 122°20'0 0.0
2018-Jun-16 10:25N 47°36' W 122°20'0 0.0
2018-Jun-16 10:00N 47°36' W 122°20'0 0.0
2018-Jun-16 09:28N 47°36' W 122°20'0 0.0
2018-Jun-16 08:58N 47°36' W 122°20'0 0.0
2018-Jun-16 08:28N 47°36' W 122°20'0 0.0
2018-Jun-16 07:58N 47°36' W 122°20'0 0.0
2018-Jun-16 07:30N 47°36' W 122°20'0 0.0
2018-Jun-16 06:58N 47°36' W 122°20'0 0.0
2018-Jun-16 06:31N 47°36' W 122°20'2 3.7
2018-Jun-16 06:00N 47°35' W 122°23'2 2.0
2018-Jun-16 05:12N 47°36' W 122°21'2 8.1
2018-Jun-16 05:00N 47°35' W 122°23'2 2.1
2018-Jun-16 04:12N 47°36' W 122°21'2 8.9
2018-Jun-16 04:00N 47°35' W 122°23'2 2.3
2018-Jun-16 03:14N 47°36' W 122°20'2 6.8
2018-Jun-16 02:59N 47°35' W 122°23'2 3.7
2018-Jun-16 02:29N 47°36' W 122°20'2 3.8
2018-Jun-16 02:00N 47°35' W 122°23'0 0.4
2018-Jun-16 01:30N 47°36' W 122°23'2 2.8
2018-Jun-16 00:55N 47°36' W 122°21'1 2.0
2018-Jun-16 00:31N 47°36' W 122°22'1 1.8
2018-Jun-15 23:59N 47°35' W 122°23'1 2.2
2018-Jun-15 23:30N 47°36' W 122°21'1 0.9
2018-Jun-15 22:53N 47°36' W 122°21'1 1.9
2018-Jun-15 22:30N 47°36' W 122°22'1 1.8
2018-Jun-15 22:00N 47°35' W 122°23'2 3.6
2018-Jun-15 21:29N 47°36' W 122°20'2 3.8
2018-Jun-15 21:00N 47°35' W 122°23'2 3.6
2018-Jun-15 20:30N 47°36' W 122°20'2 3.7
2018-Jun-15 20:00N 47°35' W 122°23'2 3.6
2018-Jun-15 19:30N 47°36' W 122°20'2 3.7
2018-Jun-15 19:00N 47°35' W 122°23'2 3.6
2018-Jun-15 18:30N 47°36' W 122°20'2 3.7
2018-Jun-15 18:00N 47°35' W 122°23'2 3.6
2018-Jun-15 17:30N 47°36' W 122°20'1 2.2
2018-Jun-15 17:00N 47°35' W 122°21'1 2.1
2018-Jun-15 16:30N 47°36' W 122°20'2 3.6
2018-Jun-15 16:00N 47°35' W 122°23'0 0.0
2018-Jun-15 15:30N 47°35' W 122°23'0 0.0
2018-Jun-15 15:00N 47°35' W 122°23'0 0.7
2018-Jun-15 14:31N 47°36' W 122°23'2 3.0
2018-Jun-15 14:00N 47°36' W 122°20'0 0.0
2018-Jun-15 13:30N 47°36' W 122°20'0 0.0
2018-Jun-15 13:00N 47°36' W 122°20'0 0.3
2018-Jun-15 12:28N 47°36' W 122°20'0 0.0
2018-Jun-15 11:58N 47°36' W 122°20'0 0.0
2018-Jun-15 11:28N 47°36' W 122°20'0 0.0
2018-Jun-15 10:58N 47°36' W 122°20'0 0.0
2018-Jun-15 10:28N 47°36' W 122°20'0 0.0
2018-Jun-15 09:58N 47°36' W 122°20'0 0.0
2018-Jun-15 09:25N 47°36' W 122°20'0 0.0
2018-Jun-15 08:58N 47°36' W 122°20'0 0.0
2018-Jun-15 08:28N 47°36' W 122°20'0 0.0
2018-Jun-15 07:58N 47°36' W 122°20'0 0.0
2018-Jun-15 07:28N 47°36' W 122°20'0 0.0
2018-Jun-15 06:58N 47°36' W 122°20'0 0.0
2018-Jun-15 06:25N 47°36' W 122°20'2 4.4
2018-Jun-15 06:00N 47°35' W 122°23'2 3.7
2018-Jun-15 05:30N 47°36' W 122°20'2 3.7
2018-Jun-15 05:00N 47°35' W 122°23'2 3.6
2018-Jun-15 04:30N 47°36' W 122°20'2 3.7
2018-Jun-15 04:00N 47°35' W 122°23'2 3.6
2018-Jun-15 03:30N 47°36' W 122°20'2 3.7
2018-Jun-15 03:00N 47°35' W 122°23'2 3.7
2018-Jun-15 02:30N 47°36' W 122°20'2 3.6
2018-Jun-15 02:00N 47°35' W 122°23'1 1.8
2018-Jun-15 01:31N 47°36' W 122°22'1 1.9
2018-Jun-15 01:00N 47°36' W 122°20'0 0.5
2018-Jun-15 00:30N 47°36' W 122°21'2 3.3
2018-Jun-15 00:00N 47°35' W 122°23'1 2.5
2018-Jun-14 23:31N 47°36' W 122°21'1 1.3
2018-Jun-14 23:00N 47°36' W 122°20'0 0.1
2018-Jun-14 22:30N 47°36' W 122°20'2 3.4
2018-Jun-14 21:59N 47°35' W 122°23'2 3.8
2018-Jun-14 21:30N 47°36' W 122°20'2 3.7
2018-Jun-14 21:00N 47°35' W 122°23'2 3.6
2018-Jun-14 20:30N 47°36' W 122°20'2 3.7
2018-Jun-14 20:00N 47°35' W 122°23'2 3.6
2018-Jun-14 19:30N 47°36' W 122°20'2 3.7
2018-Jun-14 19:00N 47°35' W 122°23'2 3.6
2018-Jun-14 18:30N 47°36' W 122°20'2 3.6
2018-Jun-14 18:00N 47°35' W 122°23'2 3.7
2018-Jun-14 17:30N 47°36' W 122°20'0 0.0
2018-Jun-14 16:59N 47°36' W 122°20'0 0.0
2018-Jun-14 16:30N 47°36' W 122°20'2 3.7
2018-Jun-14 16:01N 47°35' W 122°23'0 0.0
2018-Jun-14 15:29N 47°35' W 122°23'0 0.0
2018-Jun-14 15:00N 47°35' W 122°23'0 0.1
2018-Jun-14 14:30N 47°35' W 122°23'2 3.5
2018-Jun-14 14:00N 47°36' W 122°20'0 0.0
2018-Jun-14 13:30N 47°36' W 122°20'0 0.1
2018-Jun-14 13:00N 47°36' W 122°20'0 0.4
2018-Jun-14 12:30N 47°36' W 122°20'0 0.0
2018-Jun-14 12:00N 47°36' W 122°20'0 0.0
2018-Jun-14 11:30N 47°36' W 122°20'0 0.0
2018-Jun-14 11:00N 47°36' W 122°20'0 0.0
2018-Jun-14 10:30N 47°36' W 122°20'0 0.0
2018-Jun-14 10:00N 47°36' W 122°20'0 0.0
2018-Jun-14 09:30N 47°36' W 122°20'0 0.0
2018-Jun-14 09:00N 47°36' W 122°20'0 0.0
2018-Jun-14 08:30N 47°36' W 122°20'0 0.0
2018-Jun-14 08:00N 47°36' W 122°20'0 0.0
2018-Jun-14 07:30N 47°36' W 122°20'0 0.0
2018-Jun-14 07:00N 47°36' W 122°20'0 0.0
2018-Jun-14 06:30N 47°36' W 122°20'0 0.0
2018-Jun-14 06:00N 47°36' W 122°20'0 0.0
2018-Jun-14 05:30N 47°36' W 122°20'0 0.0
2018-Jun-14 05:00N 47°36' W 122°20'0 0.0
2018-Jun-14 04:30N 47°36' W 122°20'0 0.0
2018-Jun-14 04:00N 47°36' W 122°20'0 0.0
2018-Jun-14 03:30N 47°36' W 122°20'0 0.0
2018-Jun-14 03:00N 47°36' W 122°20'0 0.0
2018-Jun-14 02:29N 47°36' W 122°20'2 3.8
2018-Jun-14 02:00N 47°35' W 122°23'0 0.2
2018-Jun-14 01:30N 47°35' W 122°23'2 3.4
2018-Jun-14 01:00N 47°36' W 122°20'0 0.2
2018-Jun-14 00:30N 47°36' W 122°21'2 3.4
2018-Jun-14 00:00N 47°35' W 122°23'1 2.2
2018-Jun-13 23:30N 47°36' W 122°22'1 1.6
2018-Jun-13 23:00N 47°36' W 122°20'1 1.4
2018-Jun-13 22:31N 47°36' W 122°21'1 2.3
2018-Jun-13 22:00N 47°35' W 122°23'2 3.6
2018-Jun-13 21:30N 47°36' W 122°20'2 3.8
2018-Jun-13 21:00N 47°35' W 122°23'2 3.6
2018-Jun-13 20:30N 47°36' W 122°20'2 3.7
2018-Jun-13 20:00N 47°35' W 122°23'2 3.6
2018-Jun-13 19:30N 47°36' W 122°20'2 3.6
2018-Jun-13 19:00N 47°35' W 122°23'2 3.6
2018-Jun-13 18:30N 47°36' W 122°20'2 3.6
2018-Jun-13 18:00N 47°35' W 122°23'2 3.6
2018-Jun-13 17:30N 47°36' W 122°20'0 0.0
2018-Jun-13 17:00N 47°36' W 122°20'0 0.0
2018-Jun-13 16:30N 47°36' W 122°20'2 3.7
2018-Jun-13 16:01N 47°35' W 122°23'0 0.0
2018-Jun-13 15:30N 47°35' W 122°23'0 0.0
2018-Jun-13 15:00N 47°35' W 122°23'1 1.1
2018-Jun-13 14:30N 47°36' W 122°22'1 2.5
2018-Jun-13 14:00N 47°36' W 122°20'0 0.0
2018-Jun-13 13:30N 47°36' W 122°20'0 0.0
2018-Jun-13 13:00N 47°36' W 122°20'0 0.3
2018-Jun-13 12:29N 47°36' W 122°20'0 0.0
2018-Jun-13 11:58N 47°36' W 122°20'0 0.0
2018-Jun-13 11:29N 47°36' W 122°20'0 0.0
2018-Jun-13 10:59N 47°36' W 122°20'0 0.0
2018-Jun-13 10:29N 47°36' W 122°20'0 0.0
2018-Jun-13 09:59N 47°36' W 122°20'0 0.0
2018-Jun-13 09:29N 47°36' W 122°20'0 0.0
2018-Jun-13 08:59N 47°36' W 122°20'0 0.0
2018-Jun-13 08:29N 47°36' W 122°20'0 0.0
2018-Jun-13 07:59N 47°36' W 122°20'0 0.0
2018-Jun-13 07:29N 47°36' W 122°20'0 0.0
2018-Jun-13 06:55N 47°36' W 122°20'0 0.0
2018-Jun-13 06:28N 47°36' W 122°20'2 3.9
2018-Jun-13 06:01N 47°35' W 122°23'2 3.6
2018-Jun-13 05:30N 47°36' W 122°20'2 3.7
2018-Jun-13 05:00N 47°35' W 122°23'2 3.6
2018-Jun-13 04:30N 47°36' W 122°20'2 3.6
2018-Jun-13 04:00N 47°35' W 122°23'2 3.5
2018-Jun-13 03:29N 47°36' W 122°20'2 3.8
2018-Jun-13 03:00N 47°35' W 122°23'2 3.6
2018-Jun-13 02:30N 47°36' W 122°20'2 3.7
2018-Jun-13 02:00N 47°35' W 122°23'1 2.2
2018-Jun-13 01:30N 47°36' W 122°22'1 1.5
2018-Jun-13 00:59N 47°36' W 122°20'1 2.0
2018-Jun-13 00:31N 47°36' W 122°22'1 1.8
2018-Jun-13 00:01N 47°35' W 122°23'1 2.5
2018-Jun-12 23:31N 47°36' W 122°21'1 1.4
2018-Jun-12 22:59N 47°36' W 122°20'1 2.8
2018-Jun-12 22:30N 47°36' W 122°22'0 0.9
2018-Jun-12 22:00N 47°35' W 122°23'2 3.6
2018-Jun-12 21:30N 47°36' W 122°20'2 3.6
2018-Jun-12 21:00N 47°35' W 122°23'2 3.4
2018-Jun-12 20:29N 47°36' W 122°20'2 3.9
2018-Jun-12 20:00N 47°35' W 122°23'2 3.6
2018-Jun-12 19:30N 47°36' W 122°20'2 3.7
2018-Jun-12 19:00N 47°35' W 122°23'2 3.6
2018-Jun-12 18:30N 47°36' W 122°20'2 3.7
2018-Jun-12 18:00N 47°35' W 122°23'2 3.6
2018-Jun-12 17:30N 47°36' W 122°20'0 1.0
2018-Jun-12 17:00N 47°36' W 122°21'0 0.4
2018-Jun-12 16:31N 47°36' W 122°21'2 3.1
2018-Jun-12 16:00N 47°35' W 122°23'0 0.0
2018-Jun-12 15:30N 47°35' W 122°23'0 0.0
2018-Jun-12 15:00N 47°35' W 122°23'0 0.3
2018-Jun-12 14:30N 47°35' W 122°23'2 3.3
2018-Jun-12 14:00N 47°36' W 122°20'0 0.0
2018-Jun-12 13:30N 47°36' W 122°20'0 0.3
2018-Jun-12 12:59N 47°36' W 122°21'0 0.6
2018-Jun-12 12:30N 47°36' W 122°20'0 0.0
2018-Jun-12 12:00N 47°36' W 122°20'0 0.0
2018-Jun-12 11:30N 47°36' W 122°20'0 0.0
2018-Jun-12 11:00N 47°36' W 122°20'0 0.0
2018-Jun-12 10:30N 47°36' W 122°20'0 0.0
2018-Jun-12 10:00N 47°36' W 122°20'0 0.0
2018-Jun-12 09:30N 47°36' W 122°20'0 0.0
2018-Jun-12 09:00N 47°36' W 122°20'0 0.0
2018-Jun-12 08:30N 47°36' W 122°20'0 0.0
2018-Jun-12 08:00N 47°36' W 122°20'0 0.0
2018-Jun-12 07:30N 47°36' W 122°20'0 0.0
2018-Jun-12 07:00N 47°36' W 122°20'0 0.0
2018-Jun-12 06:30N 47°36' W 122°20'2 3.8
2018-Jun-12 06:00N 47°35' W 122°23'2 3.6
2018-Jun-12 05:30N 47°36' W 122°20'2 3.7
2018-Jun-12 05:00N 47°35' W 122°23'2 3.6
2018-Jun-12 04:30N 47°36' W 122°20'2 3.7
2018-Jun-12 04:01N 47°35' W 122°23'2 3.5
2018-Jun-12 03:29N 47°36' W 122°20'2 3.8
2018-Jun-12 03:00N 47°35' W 122°23'2 3.6
2018-Jun-12 02:30N 47°36' W 122°20'2 3.4
2018-Jun-12 01:59N 47°35' W 122°23'1 2.8
2018-Jun-12 01:30N 47°36' W 122°21'1 1.2
2018-Jun-12 01:00N 47°36' W 122°20'0 0.9
2018-Jun-12 00:29N 47°36' W 122°21'1 2.9
2018-Jun-12 00:00N 47°35' W 122°23'1 2.9
2018-Jun-11 23:31N 47°36' W 122°21'1 1.0
2018-Jun-11 23:00N 47°36' W 122°20'1 2.3
2018-Jun-11 22:30N 47°36' W 122°22'1 1.3
2018-Jun-11 22:00N 47°35' W 122°23'2 3.6
2018-Jun-11 21:30N 47°36' W 122°20'2 3.7
2018-Jun-11 21:00N 47°35' W 122°23'2 3.5
2018-Jun-11 20:29N 47°36' W 122°20'2 3.8
2018-Jun-11 20:00N 47°35' W 122°23'2 3.5
2018-Jun-11 19:29N 47°36' W 122°20'2 3.8
2018-Jun-11 19:00N 47°35' W 122°23'2 3.6
2018-Jun-11 18:30N 47°36' W 122°20'2 3.7
2018-Jun-11 18:00N 47°35' W 122°23'2 3.5
2018-Jun-11 17:29N 47°36' W 122°20'0 0.4
2018-Jun-11 16:59N 47°36' W 122°20'0 0.0
2018-Jun-11 16:29N 47°36' W 122°20'0 0.0
2018-Jun-11 15:59N 47°36' W 122°20'0 0.0
2018-Jun-11 15:29N 47°36' W 122°20'0 0.0
2018-Jun-11 14:59N 47°36' W 122°20'0 0.0
2018-Jun-11 14:29N 47°36' W 122°20'0 0.0
2018-Jun-11 13:59N 47°36' W 122°20'0 0.0
2018-Jun-11 13:29N 47°36' W 122°20'0 0.0
2018-Jun-11 12:56N 47°36' W 122°20'0 0.0
2018-Jun-11 12:20N 47°36' W 122°20'0 0.0
2018-Jun-11 11:53N 47°36' W 122°20'0 0.0
2018-Jun-11 11:29N 47°36' W 122°20'0 0.0
2018-Jun-11 10:59N 47°36' W 122°20'0 0.0
2018-Jun-11 10:29N 47°36' W 122°20'0 0.0
2018-Jun-11 09:59N 47°36' W 122°20'0 0.0
2018-Jun-11 09:20N 47°36' W 122°20'0 0.0
2018-Jun-11 08:59N 47°36' W 122°20'0 0.0
2018-Jun-11 08:23N 47°36' W 122°20'0 0.0
2018-Jun-11 07:59N 47°36' W 122°20'0 0.0
2018-Jun-11 07:29N 47°36' W 122°20'0 0.0
2018-Jun-11 06:56N 47°36' W 122°20'0 0.0
2018-Jun-11 06:20N 47°36' W 122°20'0 0.0
2018-Jun-11 05:56N 47°36' W 122°20'0 0.0
2018-Jun-11 05:26N 47°36' W 122°20'0 0.0
2018-Jun-11 04:56N 47°36' W 122°20'0 0.0
2018-Jun-11 04:29N 47°36' W 122°20'0 0.0
2018-Jun-11 03:59N 47°36' W 122°20'0 0.0
2018-Jun-11 03:29N 47°36' W 122°20'2 3.8
2018-Jun-11 03:00N 47°35' W 122°23'2 3.7
2018-Jun-11 02:30N 47°36' W 122°20'2 3.7
2018-Jun-11 02:00N 47°35' W 122°23'2 3.5
2018-Jun-11 01:29N 47°36' W 122°20'2 3.8
2018-Jun-11 01:01N 47°35' W 122°23'2 3.6
2018-Jun-11 00:30N 47°36' W 122°20'2 3.7
2018-Jun-11 00:00N 47°35' W 122°23'2 3.6
2018-Jun-10 23:30N 47°36' W 122°20'2 3.7
2018-Jun-10 23:00N 47°35' W 122°23'2 3.6
2018-Jun-10 22:30N 47°36' W 122°20'2 3.7
2018-Jun-10 22:00N 47°35' W 122°23'2 3.6
2018-Jun-10 21:30N 47°36' W 122°20'2 3.7
2018-Jun-10 21:00N 47°35' W 122°23'2 3.6
2018-Jun-10 20:30N 47°36' W 122°20'2 3.6
2018-Jun-10 20:00N 47°35' W 122°23'2 3.6
2018-Jun-10 19:30N 47°36' W 122°20'2 3.7
2018-Jun-10 19:00N 47°35' W 122°23'2 3.6
2018-Jun-10 18:30N 47°36' W 122°20'2 3.7
2018-Jun-10 18:00N 47°35' W 122°23'2 3.6
2018-Jun-10 17:30N 47°36' W 122°20'2 3.7
2018-Jun-10 17:00N 47°35' W 122°23'2 3.6
2018-Jun-10 16:30N 47°36' W 122°20'2 3.7
2018-Jun-10 16:00N 47°35' W 122°23'2 3.5
2018-Jun-10 15:29N 47°36' W 122°20'0 0.4
2018-Jun-10 15:00N 47°36' W 122°20'0 0.0
2018-Jun-10 14:30N 47°36' W 122°20'0 0.0
2018-Jun-10 13:27N 47°36' W 122°20'0 0.0
2018-Jun-10 12:57N 47°36' W 122°20'0 0.0
2018-Jun-10 12:30N 47°36' W 122°20'0 0.0
2018-Jun-10 12:00N 47°36' W 122°20'0 0.0
2018-Jun-10 11:30N 47°36' W 122°20'0 0.0
2018-Jun-10 11:00N 47°36' W 122°20'0 0.0
2018-Jun-10 10:30N 47°36' W 122°20'0 0.0
2018-Jun-10 10:00N 47°36' W 122°20'0 0.0
2018-Jun-10 09:30N 47°36' W 122°20'0 0.0
2018-Jun-10 09:00N 47°36' W 122°20'0 0.0
2018-Jun-10 08:30N 47°36' W 122°20'0 0.0
2018-Jun-10 08:00N 47°36' W 122°20'0 0.0
2018-Jun-10 07:30N 47°36' W 122°20'0 0.0
2018-Jun-10 06:57N 47°36' W 122°20'0 0.0
2018-Jun-10 06:30N 47°36' W 122°20'2 3.7
2018-Jun-10 06:00N 47°35' W 122°23'2 3.6
2018-Jun-10 05:30N 47°36' W 122°20'2 3.6
2018-Jun-10 05:00N 47°35' W 122°23'2 3.6
2018-Jun-10 04:30N 47°36' W 122°20'2 3.7
2018-Jun-10 04:00N 47°35' W 122°23'2 3.6
2018-Jun-10 03:30N 47°36' W 122°20'2 3.7
2018-Jun-10 03:00N 47°35' W 122°23'2 3.4
2018-Jun-10 02:28N 47°36' W 122°20'2 3.9
2018-Jun-10 02:00N 47°35' W 122°23'  
Track history (hours):
 
Tides and Currents Weather Stations Pressure Air Temp Water Temp Dewpoint Dewpoint Depression Visibility Wind Speed Wind Dir Waves Ship Positions

Doc Maynard

Owner: King County Marine Division, Seattle, WA. More information available from US FCC via Universal Licensing System and Coast Guard Vessel Documentation Center.

Last reported at 2018-Jun-20 01:58 UTC. Time now 2018-Jun-20 01:59 UTC.
Position N 47°35' W 122°23'.

Length 31 m; draft 3.1 m.

Type: Passenger vessel. MMSI: 338224000.

Date/timePositionNaut miles runAvg speedWind from/ knotsBaromVisibWave heightAir tempDewpointWater temp
2018-Jun-20 01:58N 47°35' W 122°23'0 0.7
2018-Jun-20 01:30N 47°36' W 122°22'1 2.5
2018-Jun-20 00:55N 47°36' W 122°20'1 1.9
2018-Jun-20 00:30N 47°36' W 122°21'1 2.2
2018-Jun-20 00:00N 47°35' W 122°23'0 0.4
2018-Jun-19 23:30N 47°36' W 122°23'1 2.3
2018-Jun-19 22:52N 47°36' W 122°21'1 1.8
2018-Jun-19 22:30N 47°36' W 122°22'1 2.0
2018-Jun-19 21:58N 47°35' W 122°23'2 2.5
2018-Jun-19 21:15N 47°36' W 122°20'2 5.7
2018-Jun-19 20:56N 47°35' W 122°23'2 2.8
2018-Jun-19 20:17N 47°36' W 122°20'2 6.4
2018-Jun-19 20:00N 47°35' W 122°23'2 2.6
2018-Jun-19 19:18N 47°36' W 122°20'2 6.0
2018-Jun-19 18:59N 47°35' W 122°23'2 2.3
2018-Jun-19 18:14N 47°36' W 122°21'2 6.6
2018-Jun-19 17:58N 47°35' W 122°23'2 3.5
2018-Jun-19 17:27N 47°36' W 122°20'1 2.2
2018-Jun-19 16:57N 47°35' W 122°21'1 1.3
2018-Jun-19 16:30N 47°36' W 122°21'1 2.1
2018-Jun-19 16:00N 47°36' W 122°22'0 0.7
2018-Jun-19 15:30N 47°35' W 122°23'0 0.0
2018-Jun-19 15:00N 47°35' W 122°23'0 0.1
2018-Jun-19 14:30N 47°35' W 122°23'2 2.9
2018-Jun-19 13:58N 47°36' W 122°21'0 0.6
2018-Jun-19 13:28N 47°36' W 122°20'0 0.0
2018-Jun-19 12:55N 47°36' W 122°20'0 0.3
2018-Jun-19 12:25N 47°36' W 122°20'0 0.0
2018-Jun-19 11:35N 47°36' W 122°20'0 0.0
2018-Jun-19 11:27N 47°36' W 122°20'0 0.0
2018-Jun-19 11:00N 47°36' W 122°20'0 0.0
2018-Jun-19 10:30N 47°36' W 122°20'0 0.0
2018-Jun-19 10:00N 47°36' W 122°20'0 0.0
2018-Jun-19 09:30N 47°36' W 122°20'0 0.0
2018-Jun-19 09:00N 47°36' W 122°20'0 0.0
2018-Jun-19 08:30N 47°36' W 122°20'0 0.0
2018-Jun-19 08:00N 47°36' W 122°20'0 0.0
2018-Jun-19 07:30N 47°36' W 122°20'0 0.0
2018-Jun-19 07:00N 47°36' W 122°20'0 0.0
2018-Jun-19 06:30N 47°36' W 122°20'0 0.0
2018-Jun-19 06:00N 47°36' W 122°20'0 0.0
2018-Jun-19 05:30N 47°36' W 122°20'0 0.0
2018-Jun-19 04:59N 47°36' W 122°20'0 0.0
2018-Jun-19 04:28N 47°36' W 122°20'0 0.0
2018-Jun-19 03:49N 47°36' W 122°20'0 0.0
2018-Jun-19 03:29N 47°36' W 122°20'0 0.0
2018-Jun-19 02:59N 47°36' W 122°20'0 0.0
2018-Jun-19 02:30N 47°36' W 122°20'0 0.0
2018-Jun-19 02:00N 47°36' W 122°20'0 0.0
2018-Jun-19 01:30N 47°36' W 122°20'0 0.0
2018-Jun-19 01:00N 47°36' W 122°20'0 0.0
2018-Jun-19 00:30N 47°36' W 122°20'0 0.0
2018-Jun-19 00:00N 47°36' W 122°20'0 0.0
2018-Jun-18 23:30N 47°36' W 122°20'0 0.0
2018-Jun-18 23:00N 47°36' W 122°20'0 0.0
2018-Jun-18 22:30N 47°36' W 122°20'0 0.0
2018-Jun-18 22:00N 47°36' W 122°20'0 0.0
2018-Jun-18 21:30N 47°36' W 122°20'0 0.0
2018-Jun-18 21:00N 47°36' W 122°20'0 0.0
2018-Jun-18 20:24N 47°36' W 122°20'0 0.0
2018-Jun-18 19:46N 47°36' W 122°20'0 0.0
2018-Jun-18 19:30N 47°36' W 122°20'0 0.0
2018-Jun-18 18:58N 47°36' W 122°20'0 0.0
2018-Jun-18 18:06N 47°36' W 122°20'0 0.0
2018-Jun-18 18:00N 47°36' W 122°20'0 0.0
2018-Jun-18 17:29N 47°36' W 122°20'0 0.0
2018-Jun-18 16:57N 47°36' W 122°20'0 0.0
2018-Jun-18 16:30N 47°36' W 122°20'0 0.0
2018-Jun-18 15:59N 47°36' W 122°20'0 0.0
2018-Jun-18 15:30N 47°36' W 122°20'0 0.0
2018-Jun-18 15:00N 47°36' W 122°20'0 0.0
2018-Jun-18 14:30N 47°36' W 122°20'0 0.0
2018-Jun-18 14:00N 47°36' W 122°20'0 0.0
2018-Jun-18 13:26N 47°36' W 122°20'0 0.0
2018-Jun-18 13:00N 47°36' W 122°20'0 0.0
2018-Jun-18 12:30N 47°36' W 122°20'0 0.0
2018-Jun-18 12:00N 47°36' W 122°20'0 0.0
2018-Jun-18 11:30N 47°36' W 122°20'0 0.0
2018-Jun-18 11:00N 47°36' W 122°20'0 0.0
2018-Jun-18 10:30N 47°36' W 122°20'0 0.0
2018-Jun-18 10:00N 47°36' W 122°20'0 0.0
2018-Jun-18 09:30N 47°36' W 122°20'0 0.0
2018-Jun-18 09:00N 47°36' W 122°20'0 0.0
2018-Jun-18 08:30N 47°36' W 122°20'0 0.0
2018-Jun-18 08:00N 47°36' W 122°20'0 0.0
2018-Jun-18 07:30N 47°36' W 122°20'0 0.0
2018-Jun-18 07:00N 47°36' W 122°20'0 0.0
2018-Jun-18 06:30N 47°36' W 122°20'0 0.0
2018-Jun-18 06:00N 47°36' W 122°20'0 0.0
2018-Jun-18 05:30N 47°36' W 122°20'0 0.0
2018-Jun-18 05:00N 47°36' W 122°20'0 0.0
2018-Jun-18 04:30N 47°36' W 122°20'0 0.0
2018-Jun-18 04:00N 47°36' W 122°20'0 0.0
2018-Jun-18 03:30N 47°36' W 122°20'2 3.6
2018-Jun-18 02:59N 47°35' W 122°23'2 2.5
2018-Jun-18 02:15N 47°36' W 122°20'2 6.5
2018-Jun-18 01:58N 47°35' W 122°23'2 2.6
2018-Jun-18 01:16N 47°36' W 122°20'2 6.1
2018-Jun-18 00:58N 47°35' W 122°23'2 2.5
2018-Jun-18 00:15N 47°36' W 122°20'2 6.1
2018-Jun-17 23:58N 47°35' W 122°23'2 2.7
2018-Jun-17 23:17N 47°36' W 122°20'2 6.2
2018-Jun-17 22:59N 47°35' W 122°23'2 2.7
2018-Jun-17 22:19N 47°36' W 122°20'2 5.8
2018-Jun-17 22:00N 47°35' W 122°23'2 2.2
2018-Jun-17 21:11N 47°36' W 122°20'2 9.4
2018-Jun-17 20:59N 47°35' W 122°23'2 3.4
2018-Jun-17 20:27N 47°36' W 122°20'2 3.7
2018-Jun-17 19:58N 47°35' W 122°23'2 2.5
2018-Jun-17 19:15N 47°36' W 122°21'2 6.2
2018-Jun-17 18:58N 47°35' W 122°23'2 2.2
2018-Jun-17 18:16N 47°36' W 122°21'2 5.5
2018-Jun-17 17:59N 47°35' W 122°23'1 2.1
2018-Jun-17 17:17N 47°36' W 122°21'1 4.5
2018-Jun-17 16:58N 47°35' W 122°23'2 2.0
2018-Jun-17 16:09N 47°36' W 122°21'2 7.4
2018-Jun-17 15:56N 47°35' W 122°23'2 3.7
2018-Jun-17 15:26N 47°36' W 122°20'0 0.3
2018-Jun-17 14:54N 47°36' W 122°20'0 0.0
2018-Jun-17 14:30N 47°36' W 122°20'0 0.0
2018-Jun-17 12:36N 47°36' W 122°20'0 0.0
2018-Jun-17 12:30N 47°36' W 122°20'0 0.0
2018-Jun-17 12:00N 47°36' W 122°20'0 0.0
2018-Jun-17 11:30N 47°36' W 122°20'0 0.0
2018-Jun-17 11:00N 47°36' W 122°20'0 0.0
2018-Jun-17 10:27N 47°36' W 122°20'0 0.0
2018-Jun-17 09:51N 47°36' W 122°20'0 0.0
2018-Jun-17 09:24N 47°36' W 122°20'0 0.0
2018-Jun-17 09:00N 47°36' W 122°20'0 0.0
2018-Jun-17 08:30N 47°36' W 122°20'0 0.0
2018-Jun-17 08:00N 47°36' W 122°20'0 0.0
2018-Jun-17 07:27N 47°36' W 122°20'0 0.0
2018-Jun-17 07:00N 47°36' W 122°20'0 0.0
2018-Jun-17 06:30N 47°36' W 122°20'2 3.4
2018-Jun-17 05:58N 47°35' W 122°23'2 3.1
2018-Jun-17 05:22N 47°36' W 122°20'2 4.8
2018-Jun-17 05:00N 47°35' W 122°23'2 3.5
2018-Jun-17 04:29N 47°36' W 122°20'2 3.9
2018-Jun-17 04:01N 47°35' W 122°23'2 3.4
2018-Jun-17 03:28N 47°36' W 122°20'2 3.9
2018-Jun-17 03:00N 47°35' W 122°23'2 2.4
2018-Jun-17 02:15N 47°36' W 122°20'2 7.4
2018-Jun-17 02:00N 47°35' W 122°23'2 1.9
2018-Jun-17 01:11N 47°36' W 122°21'2 7.7
2018-Jun-17 00:59N 47°35' W 122°23'2 3.8
2018-Jun-17 00:30N 47°36' W 122°20'2 3.6
2018-Jun-17 00:00N 47°35' W 122°23'2 3.7
2018-Jun-16 23:30N 47°36' W 122°20'2 3.7
2018-Jun-16 23:00N 47°35' W 122°23'2 3.7
2018-Jun-16 22:30N 47°36' W 122°20'2 3.6
2018-Jun-16 22:00N 47°35' W 122°23'2 3.2
2018-Jun-16 21:26N 47°36' W 122°20'2 4.0
2018-Jun-16 20:59N 47°35' W 122°23'2 3.3
2018-Jun-16 20:26N 47°36' W 122°20'2 4.3
2018-Jun-16 20:00N 47°35' W 122°23'2 3.5
2018-Jun-16 19:29N 47°36' W 122°20'2 3.6
2018-Jun-16 18:59N 47°35' W 122°23'2 2.4
2018-Jun-16 18:15N 47°36' W 122°21'2 7.0
2018-Jun-16 18:00N 47°35' W 122°23'2 3.7
2018-Jun-16 17:30N 47°36' W 122°20'2 3.7
2018-Jun-16 17:00N 47°35' W 122°23'2 2.9
2018-Jun-16 16:23N 47°36' W 122°20'2 4.6
2018-Jun-16 16:00N 47°35' W 122°23'2 3.5
2018-Jun-16 15:29N 47°36' W 122°20'0 0.3
2018-Jun-16 14:52N 47°36' W 122°20'0 0.0
2018-Jun-16 14:25N 47°36' W 122°20'0 0.0
2018-Jun-16 13:31N 47°36' W 122°20'0 0.0
2018-Jun-16 13:28N 47°36' W 122°20'0 0.0
2018-Jun-16 12:58N 47°36' W 122°20'0 0.0
2018-Jun-16 12:30N 47°36' W 122°20'0 0.0
2018-Jun-16 11:58N 47°36' W 122°20'0 0.0
2018-Jun-16 11:30N 47°36' W 122°20'0 0.0
2018-Jun-16 10:58N 47°36' W 122°20'0 0.0
2018-Jun-16 10:25N 47°36' W 122°20'0 0.0
2018-Jun-16 10:00N 47°36' W 122°20'0 0.0
2018-Jun-16 09:28N 47°36' W 122°20'0 0.0
2018-Jun-16 08:58N 47°36' W 122°20'0 0.0
2018-Jun-16 08:28N 47°36' W 122°20'0 0.0
2018-Jun-16 07:58N 47°36' W 122°20'0 0.0
2018-Jun-16 07:30N 47°36' W 122°20'0 0.0
2018-Jun-16 06:58N 47°36' W 122°20'0 0.0
2018-Jun-16 06:31N 47°36' W 122°20'2 3.7
2018-Jun-16 06:00N 47°35' W 122°23'2 2.0
2018-Jun-16 05:12N 47°36' W 122°21'2 8.1
2018-Jun-16 05:00N 47°35' W 122°23'2 2.1
2018-Jun-16 04:12N 47°36' W 122°21'2 8.9
2018-Jun-16 04:00N 47°35' W 122°23'2 2.3
2018-Jun-16 03:14N 47°36' W 122°20'2 6.8
2018-Jun-16 02:59N 47°35' W 122°23'2 3.7
2018-Jun-16 02:29N 47°36' W 122°20'2 3.8
2018-Jun-16 02:00N 47°35' W 122°23'0 0.4
2018-Jun-16 01:30N 47°36' W 122°23'2 2.8
2018-Jun-16 00:55N 47°36' W 122°21'1 2.0
2018-Jun-16 00:31N 47°36' W 122°22'1 1.8
2018-Jun-15 23:59N 47°35' W 122°23'1 2.2
2018-Jun-15 23:30N 47°36' W 122°21'1 0.9
2018-Jun-15 22:53N 47°36' W 122°21'1 1.9
2018-Jun-15 22:30N 47°36' W 122°22'1 1.8
2018-Jun-15 22:00N 47°35' W 122°23'2 3.6
2018-Jun-15 21:29N 47°36' W 122°20'2 3.8
2018-Jun-15 21:00N 47°35' W 122°23'2 3.6
2018-Jun-15 20:30N 47°36' W 122°20'2 3.7
2018-Jun-15 20:00N 47°35' W 122°23'2 3.6
2018-Jun-15 19:30N 47°36' W 122°20'2 3.7
2018-Jun-15 19:00N 47°35' W 122°23'2 3.6
2018-Jun-15 18:30N 47°36' W 122°20'2 3.7
2018-Jun-15 18:00N 47°35' W 122°23'2 3.6
2018-Jun-15 17:30N 47°36' W 122°20'1 2.2
2018-Jun-15 17:00N 47°35' W 122°21'1 2.1
2018-Jun-15 16:30N 47°36' W 122°20'2 3.6
2018-Jun-15 16:00N 47°35' W 122°23'0 0.0
2018-Jun-15 15:30N 47°35' W 122°23'0 0.0
2018-Jun-15 15:00N 47°35' W 122°23'0 0.7
2018-Jun-15 14:31N 47°36' W 122°23'2 3.0
2018-Jun-15 14:00N 47°36' W 122°20'0 0.0
2018-Jun-15 13:30N 47°36' W 122°20'0 0.0
2018-Jun-15 13:00N 47°36' W 122°20'0 0.3
2018-Jun-15 12:28N 47°36' W 122°20'0 0.0
2018-Jun-15 11:58N 47°36' W 122°20'0 0.0
2018-Jun-15 11:28N 47°36' W 122°20'0 0.0
2018-Jun-15 10:58N 47°36' W 122°20'0 0.0
2018-Jun-15 10:28N 47°36' W 122°20'0 0.0
2018-Jun-15 09:58N 47°36' W 122°20'0 0.0
2018-Jun-15 09:25N 47°36' W 122°20'0 0.0
2018-Jun-15 08:58N 47°36' W 122°20'0 0.0
2018-Jun-15 08:28N 47°36' W 122°20'0 0.0
2018-Jun-15 07:58N 47°36' W 122°20'0 0.0
2018-Jun-15 07:28N 47°36' W 122°20'0 0.0
2018-Jun-15 06:58N 47°36' W 122°20'0 0.0
2018-Jun-15 06:25N 47°36' W 122°20'2 4.4
2018-Jun-15 06:00N 47°35' W 122°23'2 3.7
2018-Jun-15 05:30N 47°36' W 122°20'2 3.7
2018-Jun-15 05:00N 47°35' W 122°23'2 3.6
2018-Jun-15 04:30N 47°36' W 122°20'2 3.7
2018-Jun-15 04:00N 47°35' W 122°23'2 3.6
2018-Jun-15 03:30N 47°36' W 122°20'2 3.7
2018-Jun-15 03:00N 47°35' W 122°23'2 3.7
2018-Jun-15 02:30N 47°36' W 122°20'2 3.6
2018-Jun-15 02:00N 47°35' W 122°23'1 1.8
2018-Jun-15 01:31N 47°36' W 122°22'1 1.9
2018-Jun-15 01:00N 47°36' W 122°20'0 0.5
2018-Jun-15 00:30N 47°36' W 122°21'2 3.3
2018-Jun-15 00:00N 47°35' W 122°23'1 2.5
2018-Jun-14 23:31N 47°36' W 122°21'1 1.3
2018-Jun-14 23:00N 47°36' W 122°20'0 0.1
2018-Jun-14 22:30N 47°36' W 122°20'2 3.4
2018-Jun-14 21:59N 47°35' W 122°23'2 3.8
2018-Jun-14 21:30N 47°36' W 122°20'2 3.7
2018-Jun-14 21:00N 47°35' W 122°23'2 3.6
2018-Jun-14 20:30N 47°36' W 122°20'2 3.7
2018-Jun-14 20:00N 47°35' W 122°23'2 3.6
2018-Jun-14 19:30N 47°36' W 122°20'2 3.7
2018-Jun-14 19:00N 47°35' W 122°23'2 3.6
2018-Jun-14 18:30N 47°36' W 122°20'2 3.6
2018-Jun-14 18:00N 47°35' W 122°23'2 3.7
2018-Jun-14 17:30N 47°36' W 122°20'0 0.0
2018-Jun-14 16:59N 47°36' W 122°20'0 0.0
2018-Jun-14 16:30N 47°36' W 122°20'2 3.7
2018-Jun-14 16:01N 47°35' W 122°23'0 0.0
2018-Jun-14 15:29N 47°35' W 122°23'0 0.0
2018-Jun-14 15:00N 47°35' W 122°23'0 0.1
2018-Jun-14 14:30N 47°35' W 122°23'2 3.5
2018-Jun-14 14:00N 47°36' W 122°20'0 0.0
2018-Jun-14 13:30N 47°36' W 122°20'0 0.1
2018-Jun-14 13:00N 47°36' W 122°20'0 0.4
2018-Jun-14 12:30N 47°36' W 122°20'0 0.0
2018-Jun-14 12:00N 47°36' W 122°20'0 0.0
2018-Jun-14 11:30N 47°36' W 122°20'0 0.0
2018-Jun-14 11:00N 47°36' W 122°20'0 0.0
2018-Jun-14 10:30N 47°36' W 122°20'0 0.0
2018-Jun-14 10:00N 47°36' W 122°20'0 0.0
2018-Jun-14 09:30N 47°36' W 122°20'0 0.0
2018-Jun-14 09:00N 47°36' W 122°20'0 0.0
2018-Jun-14 08:30N 47°36' W 122°20'0 0.0
2018-Jun-14 08:00N 47°36' W 122°20'0 0.0
2018-Jun-14 07:30N 47°36' W 122°20'0 0.0
2018-Jun-14 07:00N 47°36' W 122°20'0 0.0
2018-Jun-14 06:30N 47°36' W 122°20'0 0.0
2018-Jun-14 06:00N 47°36' W 122°20'0 0.0
2018-Jun-14 05:30N 47°36' W 122°20'0 0.0
2018-Jun-14 05:00N 47°36' W 122°20'0 0.0
2018-Jun-14 04:30N 47°36' W 122°20'0 0.0
2018-Jun-14 04:00N 47°36' W 122°20'0 0.0
2018-Jun-14 03:30N 47°36' W 122°20'0 0.0
2018-Jun-14 03:00N 47°36' W 122°20'0 0.0
2018-Jun-14 02:29N 47°36' W 122°20'2 3.8
2018-Jun-14 02:00N 47°35' W 122°23'0 0.2
2018-Jun-14 01:30N 47°35' W 122°23'2 3.4
2018-Jun-14 01:00N 47°36' W 122°20'0 0.2
2018-Jun-14 00:30N 47°36' W 122°21'2 3.4
2018-Jun-14 00:00N 47°35' W 122°23'1 2.2
2018-Jun-13 23:30N 47°36' W 122°22'1 1.6
2018-Jun-13 23:00N 47°36' W 122°20'1 1.4
2018-Jun-13 22:31N 47°36' W 122°21'1 2.3
2018-Jun-13 22:00N 47°35' W 122°23'2 3.6
2018-Jun-13 21:30N 47°36' W 122°20'2 3.8
2018-Jun-13 21:00N 47°35' W 122°23'2 3.6
2018-Jun-13 20:30N 47°36' W 122°20'2 3.7
2018-Jun-13 20:00N 47°35' W 122°23'2 3.6
2018-Jun-13 19:30N 47°36' W 122°20'2 3.6
2018-Jun-13 19:00N 47°35' W 122°23'2 3.6
2018-Jun-13 18:30N 47°36' W 122°20'2 3.6
2018-Jun-13 18:00N 47°35' W 122°23'2 3.6
2018-Jun-13 17:30N 47°36' W 122°20'0 0.0
2018-Jun-13 17:00N 47°36' W 122°20'0 0.0
2018-Jun-13 16:30N 47°36' W 122°20'2 3.7
2018-Jun-13 16:01N 47°35' W 122°23'0 0.0
2018-Jun-13 15:30N 47°35' W 122°23'0 0.0
2018-Jun-13 15:00N 47°35' W 122°23'1 1.1
2018-Jun-13 14:30N 47°36' W 122°22'1 2.5
2018-Jun-13 14:00N 47°36' W 122°20'0 0.0
2018-Jun-13 13:30N 47°36' W 122°20'0 0.0
2018-Jun-13 13:00N 47°36' W 122°20'0 0.3
2018-Jun-13 12:29N 47°36' W 122°20'0 0.0
2018-Jun-13 11:58N 47°36' W 122°20'0 0.0
2018-Jun-13 11:29N 47°36' W 122°20'0 0.0
2018-Jun-13 10:59N 47°36' W 122°20'0 0.0
2018-Jun-13 10:29N 47°36' W 122°20'0 0.0
2018-Jun-13 09:59N 47°36' W 122°20'0 0.0
2018-Jun-13 09:29N 47°36' W 122°20'0 0.0
2018-Jun-13 08:59N 47°36' W 122°20'0 0.0
2018-Jun-13 08:29N 47°36' W 122°20'0 0.0
2018-Jun-13 07:59N 47°36' W 122°20'0 0.0
2018-Jun-13 07:29N 47°36' W 122°20'0 0.0
2018-Jun-13 06:55N 47°36' W 122°20'0 0.0
2018-Jun-13 06:28N 47°36' W 122°20'2 3.9
2018-Jun-13 06:01N 47°35' W 122°23'2 3.6
2018-Jun-13 05:30N 47°36' W 122°20'2 3.7
2018-Jun-13 05:00N 47°35' W 122°23'2 3.6
2018-Jun-13 04:30N 47°36' W 122°20'2 3.6
2018-Jun-13 04:00N 47°35' W 122°23'2 3.5
2018-Jun-13 03:29N 47°36' W 122°20'2 3.8
2018-Jun-13 03:00N 47°35' W 122°23'2 3.6
2018-Jun-13 02:30N 47°36' W 122°20'2 3.7
2018-Jun-13 02:00N 47°35' W 122°23'1 2.2
2018-Jun-13 01:30N 47°36' W 122°22'1 1.5
2018-Jun-13 00:59N 47°36' W 122°20'1 2.0
2018-Jun-13 00:31N 47°36' W 122°22'1 1.8
2018-Jun-13 00:01N 47°35' W 122°23'1 2.5
2018-Jun-12 23:31N 47°36' W 122°21'1 1.4
2018-Jun-12 22:59N 47°36' W 122°20'1 2.8
2018-Jun-12 22:30N 47°36' W 122°22'0 0.9
2018-Jun-12 22:00N 47°35' W 122°23'2 3.6
2018-Jun-12 21:30N 47°36' W 122°20'2 3.6
2018-Jun-12 21:00N 47°35' W 122°23'2 3.4
2018-Jun-12 20:29N 47°36' W 122°20'2 3.9
2018-Jun-12 20:00N 47°35' W 122°23'2 3.6
2018-Jun-12 19:30N 47°36' W 122°20'2 3.7
2018-Jun-12 19:00N 47°35' W 122°23'2 3.6
2018-Jun-12 18:30N 47°36' W 122°20'2 3.7
2018-Jun-12 18:00N 47°35' W 122°23'2 3.6
2018-Jun-12 17:30N 47°36' W 122°20'0 1.0
2018-Jun-12 17:00N 47°36' W 122°21'0 0.4
2018-Jun-12 16:31N 47°36' W 122°21'2 3.1
2018-Jun-12 16:00N 47°35' W 122°23'0 0.0
2018-Jun-12 15:30N 47°35' W 122°23'0 0.0
2018-Jun-12 15:00N 47°35' W 122°23'0 0.3
2018-Jun-12 14:30N 47°35' W 122°23'2 3.3
2018-Jun-12 14:00N 47°36' W 122°20'0 0.0
2018-Jun-12 13:30N 47°36' W 122°20'0 0.3
2018-Jun-12 12:59N 47°36' W 122°21'0 0.6
2018-Jun-12 12:30N 47°36' W 122°20'0 0.0
2018-Jun-12 12:00N 47°36' W 122°20'0 0.0
2018-Jun-12 11:30N 47°36' W 122°20'0 0.0
2018-Jun-12 11:00N 47°36' W 122°20'0 0.0
2018-Jun-12 10:30N 47°36' W 122°20'0 0.0
2018-Jun-12 10:00N 47°36' W 122°20'0 0.0
2018-Jun-12 09:30N 47°36' W 122°20'0 0.0
2018-Jun-12 09:00N 47°36' W 122°20'0 0.0
2018-Jun-12 08:30N 47°36' W 122°20'0 0.0
2018-Jun-12 08:00N 47°36' W 122°20'0 0.0
2018-Jun-12 07:30N 47°36' W 122°20'0 0.0
2018-Jun-12 07:00N 47°36' W 122°20'0 0.0
2018-Jun-12 06:30N 47°36' W 122°20'2 3.8
2018-Jun-12 06:00N 47°35' W 122°23'2 3.6
2018-Jun-12 05:30N 47°36' W 122°20'2 3.7
2018-Jun-12 05:00N 47°35' W 122°23'2 3.6
2018-Jun-12 04:30N 47°36' W 122°20'2 3.7
2018-Jun-12 04:01N 47°35' W 122°23'2 3.5
2018-Jun-12 03:29N 47°36' W 122°20'2 3.8
2018-Jun-12 03:00N 47°35' W 122°23'2 3.6
2018-Jun-12 02:30N 47°36' W 122°20'2 3.4
2018-Jun-12 01:59N 47°35' W 122°23'1 2.8
2018-Jun-12 01:30N 47°36' W 122°21'1 1.2
2018-Jun-12 01:00N 47°36' W 122°20'0 0.9
2018-Jun-12 00:29N 47°36' W 122°21'1 2.9
2018-Jun-12 00:00N 47°35' W 122°23'1 2.9
2018-Jun-11 23:31N 47°36' W 122°21'1 1.0
2018-Jun-11 23:00N 47°36' W 122°20'1 2.3
2018-Jun-11 22:30N 47°36' W 122°22'1 1.3
2018-Jun-11 22:00N 47°35' W 122°23'2 3.6
2018-Jun-11 21:30N 47°36' W 122°20'2 3.7
2018-Jun-11 21:00N 47°35' W 122°23'2 3.5
2018-Jun-11 20:29N 47°36' W 122°20'2 3.8
2018-Jun-11 20:00N 47°35' W 122°23'2 3.5
2018-Jun-11 19:29N 47°36' W 122°20'2 3.8
2018-Jun-11 19:00N 47°35' W 122°23'2 3.6
2018-Jun-11 18:30N 47°36' W 122°20'2 3.7
2018-Jun-11 18:00N 47°35' W 122°23'2 3.5
2018-Jun-11 17:29N 47°36' W 122°20'0 0.4
2018-Jun-11 16:59N 47°36' W 122°20'0 0.0
2018-Jun-11 16:29N 47°36' W 122°20'0 0.0
2018-Jun-11 15:59N 47°36' W 122°20'0 0.0
2018-Jun-11 15:29N 47°36' W 122°20'0 0.0
2018-Jun-11 14:59N 47°36' W 122°20'0 0.0
2018-Jun-11 14:29N 47°36' W 122°20'0 0.0
2018-Jun-11 13:59N 47°36' W 122°20'0 0.0
2018-Jun-11 13:29N 47°36' W 122°20'0 0.0
2018-Jun-11 12:56N 47°36' W 122°20'0 0.0
2018-Jun-11 12:20N 47°36' W 122°20'0 0.0
2018-Jun-11 11:53N 47°36' W 122°20'0 0.0
2018-Jun-11 11:29N 47°36' W 122°20'0 0.0
2018-Jun-11 10:59N 47°36' W 122°20'0 0.0
2018-Jun-11 10:29N 47°36' W 122°20'0 0.0
2018-Jun-11 09:59N 47°36' W 122°20'0 0.0
2018-Jun-11 09:20N 47°36' W 122°20'0 0.0
2018-Jun-11 08:59N 47°36' W 122°20'0 0.0
2018-Jun-11 08:23N 47°36' W 122°20'0 0.0
2018-Jun-11 07:59N 47°36' W 122°20'0 0.0
2018-Jun-11 07:29N 47°36' W 122°20'0 0.0
2018-Jun-11 06:56N 47°36' W 122°20'0 0.0
2018-Jun-11 06:20N 47°36' W 122°20'0 0.0
2018-Jun-11 05:56N 47°36' W 122°20'0 0.0
2018-Jun-11 05:26N 47°36' W 122°20'0 0.0
2018-Jun-11 04:56N 47°36' W 122°20'0 0.0
2018-Jun-11 04:29N 47°36' W 122°20'0 0.0
2018-Jun-11 03:59N 47°36' W 122°20'0 0.0
2018-Jun-11 03:29N 47°36' W 122°20'2 3.8
2018-Jun-11 03:00N 47°35' W 122°23'2 3.7
2018-Jun-11 02:30N 47°36' W 122°20'2 3.7
2018-Jun-11 02:00N 47°35' W 122°23'2 3.5
2018-Jun-11 01:29N 47°36' W 122°20'2 3.8
2018-Jun-11 01:01N 47°35' W 122°23'2 3.6
2018-Jun-11 00:30N 47°36' W 122°20'2 3.7
2018-Jun-11 00:00N 47°35' W 122°23'2 3.6
2018-Jun-10 23:30N 47°36' W 122°20'2 3.7
2018-Jun-10 23:00N 47°35' W 122°23'2 3.6
2018-Jun-10 22:30N 47°36' W 122°20'2 3.7
2018-Jun-10 22:00N 47°35' W 122°23'2 3.6
2018-Jun-10 21:30N 47°36' W 122°20'2 3.7
2018-Jun-10 21:00N 47°35' W 122°23'2 3.6
2018-Jun-10 20:30N 47°36' W 122°20'2 3.6
2018-Jun-10 20:00N 47°35' W 122°23'2 3.6
2018-Jun-10 19:30N 47°36' W 122°20'2 3.7
2018-Jun-10 19:00N 47°35' W 122°23'2 3.6
2018-Jun-10 18:30N 47°36' W 122°20'2 3.7
2018-Jun-10 18:00N 47°35' W 122°23'2 3.6
2018-Jun-10 17:30N 47°36' W 122°20'2 3.7
2018-Jun-10 17:00N 47°35' W 122°23'2 3.6
2018-Jun-10 16:30N 47°36' W 122°20'2 3.7
2018-Jun-10 16:00N 47°35' W 122°23'2 3.5
2018-Jun-10 15:29N 47°36' W 122°20'0 0.4
2018-Jun-10 15:00N 47°36' W 122°20'0 0.0
2018-Jun-10 14:30N 47°36' W 122°20'0 0.0
2018-Jun-10 13:27N 47°36' W 122°20'0 0.0
2018-Jun-10 12:57N 47°36' W 122°20'0 0.0
2018-Jun-10 12:30N 47°36' W 122°20'0 0.0
2018-Jun-10 12:00N 47°36' W 122°20'0 0.0
2018-Jun-10 11:30N 47°36' W 122°20'0 0.0
2018-Jun-10 11:00N 47°36' W 122°20'0 0.0
2018-Jun-10 10:30N 47°36' W 122°20'0 0.0
2018-Jun-10 10:00N 47°36' W 122°20'0 0.0
2018-Jun-10 09:30N 47°36' W 122°20'0 0.0
2018-Jun-10 09:00N 47°36' W 122°20'0 0.0
2018-Jun-10 08:30N 47°36' W 122°20'0 0.0
2018-Jun-10 08:00N 47°36' W 122°20'0 0.0
2018-Jun-10 07:30N 47°36' W 122°20'0 0.0
2018-Jun-10 06:57N 47°36' W 122°20'0 0.0
2018-Jun-10 06:30N 47°36' W 122°20'2 3.7
2018-Jun-10 06:00N 47°35' W 122°23'2 3.6
2018-Jun-10 05:30N 47°36' W 122°20'2 3.6
2018-Jun-10 05:00N 47°35' W 122°23'2 3.6
2018-Jun-10 04:30N 47°36' W 122°20'2 3.7
2018-Jun-10 04:00N 47°35' W 122°23'2 3.6
2018-Jun-10 03:30N 47°36' W 122°20'2 3.7
2018-Jun-10 03:00N 47°35' W 122°23'2 3.4
2018-Jun-10 02:28N 47°36' W 122°20'2 3.9
2018-Jun-10 02:00N 47°35' W 122°23'  

Dump ship's entire track history